createdAt,value
2017-11-15T00:02:03.302Z,79.3
2017-11-15T00:07:03.520Z,79.2
2017-11-15T00:12:03.095Z,79.3
2017-11-15T00:17:03.478Z,78.7
2017-11-15T00:22:03.261Z,79.0
2017-11-15T00:27:03.493Z,78.8
2017-11-15T00:32:03.760Z,78.8
2017-11-15T00:37:03.621Z,79.4
2017-11-15T00:42:03.874Z,79.2
2017-11-15T00:47:03.154Z,79.4
2017-11-15T00:52:03.093Z,79.4
2017-11-15T00:57:03.361Z,79.6
2017-11-15T01:02:03.634Z,79.0
2017-11-15T01:07:03.332Z,78.5
2017-11-15T01:12:03.721Z,78.5
2017-11-15T01:17:04.034Z,79.1
2017-11-15T01:22:03.178Z,78.9
2017-11-15T01:27:03.406Z,78.8
2017-11-15T01:32:03.795Z,78.5
2017-11-15T01:37:03.072Z,78.8
2017-11-15T01:42:03.373Z,78.6
2017-11-15T01:47:03.715Z,78.7
2017-11-15T01:52:03.279Z,78.3
2017-11-15T01:57:03.495Z,78.5
2017-11-15T02:02:03.860Z,78.4
2017-11-15T02:07:03.531Z,78.2
2017-11-15T02:12:03.909Z,78.4
2017-11-15T02:17:03.356Z,78.1
2017-11-15T02:22:03.594Z,78.0
2017-11-15T02:27:03.834Z,78.0
2017-11-15T02:32:03.151Z,78.1
2017-11-15T02:37:03.389Z,77.9
2017-11-15T02:42:03.639Z,78.4
2017-11-15T02:47:03.991Z,78.0
2017-11-15T02:52:03.646Z,78.6
2017-11-15T02:57:03.030Z,78.4
2017-11-15T03:02:03.434Z,78.7
2017-11-15T03:07:03.669Z,78.1
2017-11-15T03:12:03.081Z,78.1
2017-11-15T03:17:03.414Z,78.6
2017-11-15T03:22:03.447Z,78.8
2017-11-15T03:27:03.675Z,79.0
2017-11-15T03:32:04.081Z,78.6
2017-11-15T03:37:03.432Z,78.6
2017-11-15T03:42:03.568Z,78.6
2017-11-15T03:47:03.913Z,78.8
2017-11-15T03:52:03.293Z,78.9
2017-11-15T03:57:03.516Z,78.9
2017-11-15T04:02:04.073Z,78.8
2017-11-15T04:07:03.327Z,78.8
2017-11-15T04:12:03.698Z,78.8
2017-11-15T04:17:03.322Z,78.8
2017-11-15T04:22:03.488Z,79.2
2017-11-15T04:27:03.808Z,79.0
2017-11-15T04:32:03.694Z,79.0
2017-11-15T04:37:03.581Z,78.4
2017-11-15T04:42:03.856Z,78.5
2017-11-15T04:47:03.255Z,78.5
2017-11-15T04:52:03.501Z,78.6
2017-11-15T04:57:03.822Z,78.3
2017-11-15T05:02:03.219Z,78.3
2017-11-15T05:07:03.649Z,78.8
2017-11-15T05:12:03.170Z,78.4
2017-11-15T05:17:03.760Z,78.9
2017-11-15T05:22:03.840Z,78.8
2017-11-15T05:27:03.255Z,78.0
2017-11-15T05:32:03.870Z,78.1
2017-11-15T05:37:03.824Z,78.0
2017-11-15T05:42:03.061Z,77.9
2017-11-15T05:47:03.612Z,78.2
2017-11-15T05:52:03.729Z,78.5
2017-11-15T05:57:03.007Z,78.4
2017-11-15T06:02:12.019Z,78.2
2017-11-15T06:07:03.934Z,78.1
2017-11-15T06:12:03.521Z,77.9
2017-11-15T06:17:24.759Z,78.3
2017-11-15T06:22:03.519Z,78.7
2017-11-15T06:27:03.707Z,78.6
2017-11-15T06:32:23.575Z,78.5
2017-11-15T06:37:03.676Z,78.3
2017-11-15T06:42:03.187Z,78.2
2017-11-15T06:47:23.780Z,78.4
2017-11-15T06:52:03.000Z,78.2
2017-11-15T06:57:03.384Z,78.2
2017-11-15T07:02:24.105Z,78.2
2017-11-15T07:07:03.289Z,78.0
2017-11-15T07:12:03.824Z,78.3
2017-11-15T07:17:21.759Z,78.9
2017-11-15T07:22:03.791Z,78.2
2017-11-15T07:27:03.244Z,78.5
2017-11-15T07:32:22.914Z,78.7
2017-11-15T07:37:03.110Z,78.6
2017-11-15T07:42:03.498Z,78.7
2017-11-15T07:47:20.617Z,78.6
2017-11-15T07:52:03.297Z,78.4
2017-11-15T07:57:03.672Z,78.4
2017-11-15T08:02:21.478Z,78.8
2017-11-15T08:07:03.749Z,78.7
2017-11-15T08:12:03.090Z,77.9
2017-11-15T08:17:24.352Z,77.7
2017-11-15T08:22:03.076Z,78.6
2017-11-15T08:27:03.369Z,79.0
2017-11-15T08:32:23.628Z,79.0
2017-11-15T08:37:03.624Z,79.0
2017-11-15T08:42:03.028Z,78.6
2017-11-15T08:47:24.059Z,78.2
2017-11-15T08:52:03.694Z,77.7
2017-11-15T08:57:03.184Z,77.6
2017-11-15T09:02:20.718Z,78.5
2017-11-15T09:07:03.187Z,78.4
2017-11-15T09:12:03.724Z,78.4
2017-11-15T09:17:24.009Z,78.5
2017-11-15T09:22:03.623Z,78.9
2017-11-15T09:27:03.103Z,78.6
2017-11-15T09:32:30.566Z,78.3
2017-11-15T09:37:03.999Z,78.1
2017-11-15T09:42:03.348Z,77.9
2017-11-15T09:47:27.251Z,78.3
2017-11-15T09:52:03.666Z,77.9
2017-11-15T09:57:03.091Z,78.1
2017-11-15T10:02:21.743Z,78.5
2017-11-15T10:07:03.981Z,80.3
2017-11-15T10:12:03.498Z,79.8
2017-11-15T10:17:24.414Z,79.9
2017-11-15T10:22:03.360Z,80.6
2017-11-15T10:27:03.780Z,80.5
2017-11-15T10:32:27.555Z,81.0
2017-11-15T10:37:03.708Z,80.9
2017-11-15T10:42:03.113Z,81.4
2017-11-15T10:47:24.469Z,81.8
2017-11-15T10:52:03.674Z,81.6
2017-11-15T10:57:03.109Z,82.0
2017-11-15T11:02:27.827Z,82.3
2017-11-15T11:07:03.848Z,82.5
2017-11-15T11:12:03.272Z,82.5
2017-11-15T11:17:23.992Z,83.3
2017-11-15T11:22:03.663Z,83.8
2017-11-15T11:27:04.052Z,83.6
2017-11-15T11:32:23.741Z,83.9
2017-11-15T11:37:03.289Z,83.9
2017-11-15T11:42:03.708Z,83.9
2017-11-15T11:47:28.005Z,83.9
2017-11-15T11:52:03.183Z,84.5
2017-11-15T11:57:03.615Z,84.9
2017-11-15T12:02:25.380Z,85.4
2017-11-15T12:07:03.837Z,85.2
2017-11-15T12:12:03.874Z,85.6
2017-11-15T12:17:32.445Z,86.1
2017-11-15T12:22:03.455Z,86.2
2017-11-15T12:27:03.870Z,86.2
2017-11-15T12:32:27.413Z,86.1
2017-11-15T12:37:03.062Z,86.0
2017-11-15T12:42:03.579Z,85.6
2017-11-15T12:47:24.753Z,85.6
2017-11-15T12:52:03.656Z,85.8
2017-11-15T12:57:03.004Z,85.3
2017-11-15T13:02:23.690Z,85.5
2017-11-15T13:07:03.127Z,86.1
2017-11-15T13:12:03.729Z,86.0
2017-11-15T13:17:24.535Z,86.0
2017-11-15T13:22:03.049Z,86.4
2017-11-15T13:27:03.581Z,85.8
2017-11-15T13:32:28.356Z,86.8
2017-11-15T13:37:03.056Z,85.1
2017-11-15T13:42:03.520Z,85.1
2017-11-15T13:47:20.973Z,84.2
2017-11-15T13:52:03.648Z,83.3
2017-11-15T13:57:03.084Z,82.0
2017-11-15T14:02:23.838Z,80.9
2017-11-15T14:07:03.186Z,78.8
2017-11-15T14:12:03.675Z,77.5
2017-11-15T14:17:24.523Z,77.5
2017-11-15T14:22:03.643Z,77.0
2017-11-15T14:27:03.955Z,77.0
2017-11-15T14:32:24.759Z,75.9
2017-11-15T14:37:03.690Z,75.9
2017-11-15T14:42:03.114Z,75.2
2017-11-15T14:47:26.906Z,75.2
2017-11-15T14:52:03.742Z,76.1
2017-11-15T14:57:03.086Z,76.1
2017-11-15T15:02:21.826Z,75.3
2017-11-15T15:07:03.774Z,76.0
2017-11-15T15:12:03.350Z,77.4
2017-11-15T15:17:24.478Z,78.8
2017-11-15T15:22:03.468Z,78.8
2017-11-15T15:27:03.821Z,80.2
2017-11-15T15:32:21.419Z,81.3
2017-11-15T15:37:03.355Z,81.4
2017-11-15T15:42:03.756Z,84.2
2017-11-15T15:47:23.607Z,84.1
2017-11-15T15:52:03.150Z,84.4
2017-11-15T15:57:03.872Z,85.1
2017-11-15T16:02:24.954Z,85.8
2017-11-15T16:07:03.792Z,85.5
2017-11-15T16:12:03.852Z,85.4
2017-11-15T16:17:20.451Z,85.3
2017-11-15T16:22:03.787Z,84.9
2017-11-15T16:27:03.279Z,84.9
2017-11-15T16:32:11.725Z,84.6
2017-11-15T16:37:02.998Z,84.1
2017-11-15T16:42:03.447Z,83.7
2017-11-15T16:47:03.690Z,83.5
2017-11-15T16:52:03.058Z,83.1
2017-11-15T16:57:03.397Z,82.9
2017-11-15T17:02:03.755Z,82.9
2017-11-15T17:07:03.253Z,83.1
2017-11-15T17:12:03.622Z,82.8
2017-11-15T17:17:03.892Z,82.7
2017-11-15T17:22:03.417Z,82.1
2017-11-15T17:27:03.578Z,81.8
2017-11-15T17:32:04.011Z,82.0
2017-11-15T17:37:03.310Z,81.7
2017-11-15T17:42:03.573Z,81.7
2017-11-15T17:47:03.906Z,81.6
2017-11-15T17:52:03.269Z,81.8
2017-11-15T17:57:03.569Z,81.6
2017-11-15T18:02:03.884Z,81.5
2017-11-15T18:07:03.260Z,81.4
2017-11-15T18:12:03.721Z,81.3
2017-11-15T18:17:04.082Z,81.2
2017-11-15T18:22:03.437Z,81.1
2017-11-15T18:27:03.693Z,81.0
2017-11-15T18:32:03.141Z,81.0
2017-11-15T18:37:03.430Z,81.0
2017-11-15T18:42:03.650Z,81.0
2017-11-15T18:47:03.993Z,81.1
2017-11-15T18:52:03.329Z,81.0
2017-11-15T18:57:03.671Z,80.9
2017-11-15T19:02:03.068Z,80.8
2017-11-15T19:07:03.417Z,80.8
2017-11-15T19:12:03.828Z,80.8
2017-11-15T19:17:03.385Z,80.7
2017-11-15T19:22:03.557Z,80.6
2017-11-15T19:27:03.836Z,80.4
2017-11-15T19:32:03.511Z,80.4
2017-11-15T19:37:03.602Z,80.4
2017-11-15T19:42:03.885Z,80.4
2017-11-15T19:47:03.650Z,80.4
2017-11-15T19:52:03.649Z,80.4
2017-11-15T19:57:02.949Z,80.5
2017-11-15T20:02:03.352Z,80.2
2017-11-15T20:07:03.758Z,80.2
2017-11-15T20:12:03.186Z,80.0
2017-11-15T20:17:03.667Z,80.1
2017-11-15T20:22:03.034Z,80.3
2017-11-15T20:27:03.409Z,80.2
2017-11-15T20:32:03.670Z,80.0
2017-11-15T20:37:04.080Z,79.9
2017-11-15T20:42:03.276Z,79.9
2017-11-15T20:47:03.684Z,79.8
2017-11-15T20:52:03.900Z,79.9
2017-11-15T20:57:03.266Z,79.9
2017-11-15T21:02:03.517Z,80.3
2017-11-15T21:07:03.056Z,80.2
2017-11-15T21:12:03.506Z,80.1
2017-11-15T21:17:03.797Z,80.1
2017-11-15T21:22:03.239Z,80.0
2017-11-15T21:27:03.420Z,79.9
2017-11-15T21:32:03.785Z,80.0
2017-11-15T21:37:03.125Z,79.9
2017-11-15T21:42:03.406Z,79.7
2017-11-15T21:47:03.765Z,79.9
2017-11-15T21:52:03.167Z,80.0
2017-11-15T21:57:03.363Z,79.9
2017-11-15T22:02:03.712Z,79.9
2017-11-15T22:07:03.347Z,79.7
2017-11-15T22:12:03.753Z,80.2
2017-11-15T22:17:04.146Z,80.3
2017-11-15T22:22:03.414Z,80.2
2017-11-15T22:27:03.644Z,80.3
2017-11-15T22:32:03.265Z,80.2
2017-11-15T22:37:03.392Z,80.2
2017-11-15T22:42:03.661Z,80.3
2017-11-15T22:47:03.110Z,80.2
2017-11-15T22:52:03.359Z,79.8
2017-11-15T22:57:03.667Z,79.8
2017-11-15T23:02:03.226Z,80.0
2017-11-15T23:07:03.617Z,79.6
2017-11-15T23:12:03.084Z,79.9
2017-11-15T23:22:04.233Z,79.7
2017-11-15T23:27:03.892Z,80.0
2017-11-15T23:32:03.983Z,79.4
2017-11-15T23:37:03.362Z,79.9
2017-11-15T23:42:03.508Z,79.9
2017-11-15T23:47:03.555Z,80.1
2017-11-15T23:52:03.417Z,80.1
2017-11-15T23:57:03.284Z,80.1
